sensor_id;sensor_type;location;lat;lon;timestamp;P1;durP1;ratioP1;P2;durP2;ratioP2
2480;SDS011;57396;48.742;9.128;2022-07-29T00:01:15;9.33;;;5.20;;
2480;SDS011;57396;48.742;9.128;2022-07-29T00:03:41;6.30;;;4.87;;
2480;SDS011;57396;48.742;9.128;2022-07-29T00:06:07;8.93;;;5.30;;
2480;SDS011;57396;48.742;9.128;2022-07-29T00:08:32;5.93;;;4.90;;
2480;SDS011;57396;48.742;9.128;2022-07-29T00:10:58;5.40;;;4.90;;
2480;SDS011;57396;48.742;9.128;2022-07-29T00:13:23;5.43;;;4.93;;
2480;SDS011;57396;48.742;9.128;2022-07-29T00:15:49;9.33;;;4.77;;
2480;SDS011;57396;48.742;9.128;2022-07-29T00:18:14;6.20;;;5.53;;
2480;SDS011;57396;48.742;9.128;2022-07-29T00:20:39;5.60;;;4.90;;
2480;SDS011;57396;48.742;9.128;2022-07-29T00:23:05;6.80;;;4.63;;
2480;SDS011;57396;48.742;9.128;2022-07-29T00:25:30;6.53;;;5.13;;
2480;SDS011;57396;48.742;9.128;2022-07-29T00:27:56;6.60;;;5.57;;
2480;SDS011;57396;48.742;9.128;2022-07-29T00:30:22;5.43;;;4.90;;
2480;SDS011;57396;48.742;9.128;2022-07-29T00:32:48;5.43;;;5.03;;
2480;SDS011;57396;48.742;9.128;2022-07-29T00:35:13;5.10;;;4.60;;
2480;SDS011;57396;48.742;9.128;2022-07-29T00:37:57;6.60;;;4.90;;
2480;SDS011;57396;48.742;9.128;2022-07-29T00:40:23;6.93;;;4.87;;
2480;SDS011;57396;48.742;9.128;2022-07-29T00:42:49;5.47;;;5.07;;
2480;SDS011;57396;48.742;9.128;2022-07-29T00:45:15;5.67;;;5.07;;
2480;SDS011;57396;48.742;9.128;2022-07-29T00:47:41;4.97;;;4.57;;
2480;SDS011;57396;48.742;9.128;2022-07-29T00:50:07;6.97;;;5.33;;
2480;SDS011;57396;48.742;9.128;2022-07-29T00:52:38;5.50;;;5.00;;
2480;SDS011;57396;48.742;9.128;2022-07-29T00:55:05;5.53;;;4.97;;
2480;SDS011;57396;48.742;9.128;2022-07-29T00:57:31;6.30;;;4.63;;
2480;SDS011;57396;48.742;9.128;2022-07-29T00:59:57;5.47;;;4.60;;
2480;SDS011;57396;48.742;9.128;2022-07-29T01:02:23;5.77;;;4.27;;
2480;SDS011;57396;48.742;9.128;2022-07-29T01:04:48;5.17;;;4.63;;
2480;SDS011;57396;48.742;9.128;2022-07-29T01:07:14;4.43;;;4.03;;
2480;SDS011;57396;48.742;9.128;2022-07-29T01:09:39;5.50;;;4.77;;
2480;SDS011;57396;48.742;9.128;2022-07-29T01:12:05;4.87;;;4.43;;
2480;SDS011;57396;48.742;9.128;2022-07-29T01:14:31;6.10;;;4.63;;
2480;SDS011;57396;48.742;9.128;2022-07-29T01:30:23;5.20;;;4.60;;
2480;SDS011;57396;48.742;9.128;2022-07-29T01:32:50;5.03;;;4.20;;
2480;SDS011;57396;48.742;9.128;2022-07-29T01:35:23;7.73;;;4.70;;
2480;SDS011;57396;48.742;9.128;2022-07-29T01:40:36;4.97;;;4.50;;
2480;SDS011;57396;48.742;9.128;2022-07-29T01:43:09;5.73;;;4.53;;
2480;SDS011;57396;48.742;9.128;2022-07-29T01:45:40;5.20;;;4.80;;
2480;SDS011;57396;48.742;9.128;2022-07-29T01:50:45;5.67;;;4.30;;
2480;SDS011;57396;48.742;9.128;2022-07-29T01:53:12;4.57;;;4.17;;
2480;SDS011;57396;48.742;9.128;2022-07-29T01:55:42;4.97;;;4.57;;
2480;SDS011;57396;48.742;9.128;2022-07-29T01:58:09;4.40;;;4.00;;
2480;SDS011;57396;48.742;9.128;2022-07-29T02:00:36;4.57;;;4.17;;
2480;SDS011;57396;48.742;9.128;2022-07-29T02:03:02;4.90;;;4.50;;
2480;SDS011;57396;48.742;9.128;2022-07-29T02:05:30;4.10;;;3.80;;
2480;SDS011;57396;48.742;9.128;2022-07-29T02:07:56;4.67;;;4.27;;
2480;SDS011;57396;48.742;9.128;2022-07-29T02:10:24;5.97;;;4.60;;
2480;SDS011;57396;48.742;9.128;2022-07-29T02:12:54;4.50;;;4.13;;
2480;SDS011;57396;48.742;9.128;2022-07-29T02:15:20;6.93;;;3.83;;
2480;SDS011;57396;48.742;9.128;2022-07-29T02:17:51;5.00;;;4.60;;
2480;SDS011;57396;48.742;9.128;2022-07-29T02:20:20;6.77;;;4.80;;
2480;SDS011;57396;48.742;9.128;2022-07-29T02:22:47;5.73;;;4.17;;
2480;SDS011;57396;48.742;9.128;2022-07-29T02:25:14;4.73;;;4.20;;
2480;SDS011;57396;48.742;9.128;2022-07-29T02:27:40;3.97;;;3.67;;
2480;SDS011;57396;48.742;9.128;2022-07-29T02:30:06;5.93;;;3.60;;
2480;SDS011;57396;48.742;9.128;2022-07-29T02:32:34;4.23;;;3.83;;
2480;SDS011;57396;48.742;9.128;2022-07-29T02:35:01;4.27;;;3.57;;
2480;SDS011;57396;48.742;9.128;2022-07-29T02:37:27;3.97;;;3.53;;
2480;SDS011;57396;48.742;9.128;2022-07-29T02:39:54;4.00;;;3.67;;
2480;SDS011;57396;48.742;9.128;2022-07-29T02:42:20;3.73;;;3.43;;
2480;SDS011;57396;48.742;9.128;2022-07-29T02:44:46;4.20;;;3.87;;
2480;SDS011;57396;48.742;9.128;2022-07-29T02:52:29;4.30;;;3.90;;
2480;SDS011;57396;48.742;9.128;2022-07-29T02:57:33;4.27;;;3.87;;
2480;SDS011;57396;48.742;9.128;2022-07-29T03:00:04;5.10;;;4.03;;
2480;SDS011;57396;48.742;9.128;2022-07-29T03:02:33;4.67;;;3.67;;
2480;SDS011;57396;48.742;9.128;2022-07-29T03:05:01;4.27;;;3.87;;
2480;SDS011;57396;48.742;9.128;2022-07-29T03:07:27;6.43;;;4.10;;
2480;SDS011;57396;48.742;9.128;2022-07-29T03:09:53;3.70;;;3.40;;
2480;SDS011;57396;48.742;9.128;2022-07-29T03:12:19;3.67;;;3.40;;
2480;SDS011;57396;48.742;9.128;2022-07-29T03:14:45;5.97;;;3.83;;
2480;SDS011;57396;48.742;9.128;2022-07-29T03:17:11;4.77;;;3.97;;
2480;SDS011;57396;48.742;9.128;2022-07-29T03:19:37;7.57;;;5.07;;
2480;SDS011;57396;48.742;9.128;2022-07-29T03:22:02;8.90;;;4.70;;
2480;SDS011;57396;48.742;9.128;2022-07-29T03:24:32;5.20;;;3.70;;
2480;SDS011;57396;48.742;9.128;2022-07-29T03:27:03;8.83;;;3.60;;
2480;SDS011;57396;48.742;9.128;2022-07-29T03:29:33;3.90;;;3.47;;
2480;SDS011;57396;48.742;9.128;2022-07-29T03:31:58;6.20;;;4.10;;
2480;SDS011;57396;48.742;9.128;2022-07-29T03:34:24;4.50;;;4.10;;
2480;SDS011;57396;48.742;9.128;2022-07-29T03:36:49;4.37;;;3.90;;
2480;SDS011;57396;48.742;9.128;2022-07-29T03:39:17;6.03;;;5.07;;
2480;SDS011;57396;48.742;9.128;2022-07-29T03:41:47;4.00;;;3.60;;
2480;SDS011;57396;48.742;9.128;2022-07-29T03:44:13;4.57;;;4.17;;
2480;SDS011;57396;48.742;9.128;2022-07-29T03:46:39;4.23;;;3.93;;
2480;SDS011;57396;48.742;9.128;2022-07-29T03:49:04;7.70;;;4.00;;
2480;SDS011;57396;48.742;9.128;2022-07-29T03:51:33;4.07;;;3.70;;
2480;SDS011;57396;48.742;9.128;2022-07-29T03:53:59;4.80;;;4.40;;
2480;SDS011;57396;48.742;9.128;2022-07-29T03:56:24;4.20;;;3.90;;
2480;SDS011;57396;48.742;9.128;2022-07-29T03:58:51;4.27;;;3.87;;
2480;SDS011;57396;48.742;9.128;2022-07-29T04:01:18;4.87;;;4.37;;
2480;SDS011;57396;48.742;9.128;2022-07-29T04:03:44;3.93;;;3.63;;
2480;SDS011;57396;48.742;9.128;2022-07-29T04:06:13;5.43;;;4.30;;
2480;SDS011;57396;48.742;9.128;2022-07-29T04:08:38;4.37;;;3.97;;
2480;SDS011;57396;48.742;9.128;2022-07-29T04:11:04;4.10;;;3.80;;
2480;SDS011;57396;48.742;9.128;2022-07-29T04:13:30;4.30;;;3.90;;
2480;SDS011;57396;48.742;9.128;2022-07-29T04:15:56;4.33;;;3.93;;
2480;SDS011;57396;48.742;9.128;2022-07-29T04:18:22;4.43;;;3.70;;
2480;SDS011;57396;48.742;9.128;2022-07-29T04:20:47;7.83;;;4.27;;
2480;SDS011;57396;48.742;9.128;2022-07-29T04:23:13;4.30;;;3.90;;
2480;SDS011;57396;48.742;9.128;2022-07-29T04:25:39;4.40;;;3.70;;
2480;SDS011;57396;48.742;9.128;2022-07-29T04:28:05;4.90;;;3.80;;
2480;SDS011;57396;48.742;9.128;2022-07-29T04:30:31;4.53;;;4.13;;
2480;SDS011;57396;48.742;9.128;2022-07-29T04:32:58;4.00;;;3.70;;
2480;SDS011;57396;48.742;9.128;2022-07-29T04:35:25;7.00;;;4.40;;
2480;SDS011;57396;48.742;9.128;2022-07-29T04:37:51;4.03;;;3.30;;
2480;SDS011;57396;48.742;9.128;2022-07-29T04:40:17;7.83;;;3.27;;
2480;SDS011;57396;48.742;9.128;2022-07-29T04:42:42;5.43;;;3.47;;
2480;SDS011;57396;48.742;9.128;2022-07-29T04:45:08;3.70;;;3.27;;
2480;SDS011;57396;48.742;9.128;2022-07-29T04:47:33;3.30;;;3.00;;
2480;SDS011;57396;48.742;9.128;2022-07-29T04:49:59;4.93;;;3.13;;
2480;SDS011;57396;48.742;9.128;2022-07-29T04:52:25;4.43;;;2.77;;
2480;SDS011;57396;48.742;9.128;2022-07-29T04:54:50;3.07;;;2.87;;
2480;SDS011;57396;48.742;9.128;2022-07-29T04:57:15;4.10;;;2.70;;
2480;SDS011;57396;48.742;9.128;2022-07-29T04:59:41;4.00;;;2.47;;
2480;SDS011;57396;48.742;9.128;2022-07-29T05:02:06;2.50;;;2.40;;
2480;SDS011;57396;48.742;9.128;2022-07-29T05:04:32;2.60;;;2.40;;
2480;SDS011;57396;48.742;9.128;2022-07-29T05:06:57;2.83;;;2.47;;
2480;SDS011;57396;48.742;9.128;2022-07-29T05:09:23;2.77;;;2.57;;
2480;SDS011;57396;48.742;9.128;2022-07-29T05:11:48;2.60;;;2.40;;
2480;SDS011;57396;48.742;9.128;2022-07-29T05:14:14;2.50;;;2.30;;
2480;SDS011;57396;48.742;9.128;2022-07-29T05:16:39;5.30;;;2.83;;
2480;SDS011;57396;48.742;9.128;2022-07-29T05:19:05;2.70;;;2.50;;
2480;SDS011;57396;48.742;9.128;2022-07-29T05:21:31;2.53;;;2.23;;
2480;SDS011;57396;48.742;9.128;2022-07-29T05:23:56;2.77;;;2.67;;
2480;SDS011;57396;48.742;9.128;2022-07-29T05:26:21;2.67;;;2.47;;
2480;SDS011;57396;48.742;9.128;2022-07-29T05:28:47;3.63;;;2.80;;
2480;SDS011;57396;48.742;9.128;2022-07-29T05:31:12;3.90;;;3.33;;
2480;SDS011;57396;48.742;9.128;2022-07-29T05:33:39;3.23;;;2.53;;
2480;SDS011;57396;48.742;9.128;2022-07-29T05:36:06;4.33;;;2.87;;
2480;SDS011;57396;48.742;9.128;2022-07-29T05:38:32;2.80;;;2.60;;
2480;SDS011;57396;48.742;9.128;2022-07-29T05:40:58;4.20;;;2.60;;
2480;SDS011;57396;48.742;9.128;2022-07-29T05:43:24;3.73;;;2.80;;
2480;SDS011;57396;48.742;9.128;2022-07-29T05:45:51;2.80;;;2.60;;
2480;SDS011;57396;48.742;9.128;2022-07-29T05:48:16;3.77;;;2.50;;
2480;SDS011;57396;48.742;9.128;2022-07-29T05:50:42;2.80;;;2.60;;
2480;SDS011;57396;48.742;9.128;2022-07-29T05:53:07;4.00;;;3.37;;
2480;SDS011;57396;48.742;9.128;2022-07-29T05:55:32;3.20;;;2.47;;
2480;SDS011;57396;48.742;9.128;2022-07-29T05:57:58;4.40;;;2.83;;
2480;SDS011;57396;48.742;9.128;2022-07-29T06:00:23;2.60;;;2.40;;
2480;SDS011;57396;48.742;9.128;2022-07-29T06:02:49;2.67;;;2.47;;
2480;SDS011;57396;48.742;9.128;2022-07-29T06:05:14;6.53;;;2.70;;
2480;SDS011;57396;48.742;9.128;2022-07-29T06:07:40;4.93;;;2.40;;
2480;SDS011;57396;48.742;9.128;2022-07-29T06:10:05;3.00;;;2.70;;
2480;SDS011;57396;48.742;9.128;2022-07-29T06:12:31;4.77;;;3.37;;
2480;SDS011;57396;48.742;9.128;2022-07-29T06:14:56;4.63;;;3.10;;
2480;SDS011;57396;48.742;9.128;2022-07-29T06:17:22;5.87;;;3.40;;
2480;SDS011;57396;48.742;9.128;2022-07-29T06:19:48;5.33;;;3.40;;
2480;SDS011;57396;48.742;9.128;2022-07-29T06:22:15;4.73;;;3.20;;
2480;SDS011;57396;48.742;9.128;2022-07-29T06:24:41;7.83;;;3.43;;
2480;SDS011;57396;48.742;9.128;2022-07-29T06:27:09;3.17;;;2.97;;
2480;SDS011;57396;48.742;9.128;2022-07-29T06:29:35;3.17;;;2.90;;
2480;SDS011;57396;48.742;9.128;2022-07-29T06:32:01;3.27;;;3.03;;
2480;SDS011;57396;48.742;9.128;2022-07-29T06:34:27;3.53;;;3.23;;
2480;SDS011;57396;48.742;9.128;2022-07-29T06:36:52;9.30;;;2.80;;
2480;SDS011;57396;48.742;9.128;2022-07-29T06:39:18;3.00;;;2.80;;
2480;SDS011;57396;48.742;9.128;2022-07-29T06:41:46;3.83;;;3.30;;
2480;SDS011;57396;48.742;9.128;2022-07-29T06:44:13;3.47;;;3.00;;
2480;SDS011;57396;48.742;9.128;2022-07-29T06:46:38;8.07;;;3.23;;
2480;SDS011;57396;48.742;9.128;2022-07-29T06:49:04;4.97;;;2.63;;
2480;SDS011;57396;48.742;9.128;2022-07-29T06:51:29;4.27;;;3.00;;
2480;SDS011;57396;48.742;9.128;2022-07-29T06:53:55;4.70;;;3.00;;
2480;SDS011;57396;48.742;9.128;2022-07-29T06:56:22;4.20;;;3.30;;
2480;SDS011;57396;48.742;9.128;2022-07-29T06:58:47;6.60;;;2.83;;
2480;SDS011;57396;48.742;9.128;2022-07-29T07:01:13;4.70;;;2.97;;
2480;SDS011;57396;48.742;9.128;2022-07-29T07:03:38;3.80;;;3.43;;
2480;SDS011;57396;48.742;9.128;2022-07-29T07:06:04;3.73;;;3.43;;
2480;SDS011;57396;48.742;9.128;2022-07-29T07:08:29;6.90;;;3.33;;
2480;SDS011;57396;48.742;9.128;2022-07-29T07:10:55;3.90;;;3.40;;
2480;SDS011;57396;48.742;9.128;2022-07-29T07:13:21;6.50;;;2.97;;
2480;SDS011;57396;48.742;9.128;2022-07-29T07:15:47;6.30;;;3.43;;
2480;SDS011;57396;48.742;9.128;2022-07-29T07:18:13;7.80;;;3.27;;
2480;SDS011;57396;48.742;9.128;2022-07-29T07:20:39;5.03;;;3.20;;
2480;SDS011;57396;48.742;9.128;2022-07-29T07:23:05;11.23;;;3.53;;
2480;SDS011;57396;48.742;9.128;2022-07-29T07:25:31;4.93;;;4.03;;
2480;SDS011;57396;48.742;9.128;2022-07-29T07:27:56;3.50;;;3.20;;
2480;SDS011;57396;48.742;9.128;2022-07-29T07:30:22;3.20;;;2.90;;
2480;SDS011;57396;48.742;9.128;2022-07-29T07:32:47;6.40;;;3.23;;
2480;SDS011;57396;48.742;9.128;2022-07-29T07:35:13;4.53;;;3.50;;
2480;SDS011;57396;48.742;9.128;2022-07-29T07:37:39;3.10;;;2.90;;
2480;SDS011;57396;48.742;9.128;2022-07-29T07:40:08;5.43;;;3.40;;
2480;SDS011;57396;48.742;9.128;2022-07-29T07:42:35;3.80;;;3.50;;
2480;SDS011;57396;48.742;9.128;2022-07-29T07:45:00;4.60;;;3.57;;
2480;SDS011;57396;48.742;9.128;2022-07-29T07:47:25;4.70;;;3.07;;
2480;SDS011;57396;48.742;9.128;2022-07-29T07:49:51;3.57;;;3.00;;
2480;SDS011;57396;48.742;9.128;2022-07-29T07:52:18;3.90;;;3.20;;
2480;SDS011;57396;48.742;9.128;2022-07-29T07:54:45;3.50;;;3.20;;
2480;SDS011;57396;48.742;9.128;2022-07-29T07:57:11;5.03;;;3.40;;
2480;SDS011;57396;48.742;9.128;2022-07-29T07:59:37;6.40;;;3.57;;
2480;SDS011;57396;48.742;9.128;2022-07-29T08:02:02;3.93;;;3.13;;
2480;SDS011;57396;48.742;9.128;2022-07-29T08:04:28;5.50;;;3.23;;
2480;SDS011;57396;48.742;9.128;2022-07-29T08:06:54;4.80;;;2.93;;
2480;SDS011;57396;48.742;9.128;2022-07-29T08:09:20;3.83;;;3.30;;
2480;SDS011;57396;48.742;9.128;2022-07-29T08:11:46;5.30;;;3.33;;
2480;SDS011;57396;48.742;9.128;2022-07-29T08:14:12;3.77;;;3.47;;
2480;SDS011;57396;48.742;9.128;2022-07-29T08:16:38;5.13;;;3.30;;
2480;SDS011;57396;48.742;9.128;2022-07-29T08:19:05;3.97;;;3.40;;
2480;SDS011;57396;48.742;9.128;2022-07-29T08:21:30;4.20;;;3.30;;
2480;SDS011;57396;48.742;9.128;2022-07-29T08:23:55;4.43;;;3.17;;
2480;SDS011;57396;48.742;9.128;2022-07-29T08:26:41;9.87;;;3.23;;
2480;SDS011;57396;48.742;9.128;2022-07-29T08:29:08;4.20;;;3.30;;
2480;SDS011;57396;48.742;9.128;2022-07-29T08:31:34;3.50;;;3.10;;
2480;SDS011;57396;48.742;9.128;2022-07-29T08:34:03;4.80;;;3.53;;
2480;SDS011;57396;48.742;9.128;2022-07-29T08:36:29;9.60;;;3.47;;
2480;SDS011;57396;48.742;9.128;2022-07-29T08:38:55;4.40;;;3.20;;
2480;SDS011;57396;48.742;9.128;2022-07-29T08:41:21;6.90;;;3.57;;
2480;SDS011;57396;48.742;9.128;2022-07-29T08:43:47;6.63;;;3.17;;
2480;SDS011;57396;48.742;9.128;2022-07-29T08:46:14;5.70;;;3.80;;
2480;SDS011;57396;48.742;9.128;2022-07-29T08:48:40;8.43;;;3.47;;
2480;SDS011;57396;48.742;9.128;2022-07-29T08:51:07;3.10;;;2.90;;
2480;SDS011;57396;48.742;9.128;2022-07-29T08:53:33;3.40;;;3.10;;
2480;SDS011;57396;48.742;9.128;2022-07-29T08:55:58;5.40;;;3.87;;
2480;SDS011;57396;48.742;9.128;2022-07-29T08:58:24;10.17;;;3.60;;
2480;SDS011;57396;48.742;9.128;2022-07-29T09:00:51;5.17;;;3.23;;
2480;SDS011;57396;48.742;9.128;2022-07-29T09:03:19;3.83;;;3.53;;
2480;SDS011;57396;48.742;9.128;2022-07-29T09:05:46;5.17;;;3.83;;
2480;SDS011;57396;48.742;9.128;2022-07-29T09:08:12;5.17;;;3.47;;
2480;SDS011;57396;48.742;9.128;2022-07-29T09:10:38;5.17;;;3.23;;
2480;SDS011;57396;48.742;9.128;2022-07-29T09:13:04;5.90;;;3.23;;
2480;SDS011;57396;48.742;9.128;2022-07-29T09:15:30;3.40;;;3.10;;
2480;SDS011;57396;48.742;9.128;2022-07-29T09:17:55;3.93;;;3.40;;
2480;SDS011;57396;48.742;9.128;2022-07-29T09:20:23;5.57;;;3.53;;
2480;SDS011;57396;48.742;9.128;2022-07-29T09:22:49;4.93;;;3.00;;
2480;SDS011;57396;48.742;9.128;2022-07-29T09:30:54;6.03;;;3.30;;
2480;SDS011;57396;48.742;9.128;2022-07-29T09:33:23;8.73;;;3.40;;
2480;SDS011;57396;48.742;9.128;2022-07-29T09:36:05;3.67;;;3.30;;
2480;SDS011;57396;48.742;9.128;2022-07-29T09:38:32;7.90;;;3.27;;
2480;SDS011;57396;48.742;9.128;2022-07-29T09:40:59;7.50;;;3.67;;
2480;SDS011;57396;48.742;9.128;2022-07-29T09:43:25;3.87;;;3.40;;
2480;SDS011;57396;48.742;9.128;2022-07-29T09:45:51;10.00;;;3.70;;
2480;SDS011;57396;48.742;9.128;2022-07-29T09:48:21;5.13;;;3.33;;
2480;SDS011;57396;48.742;9.128;2022-07-29T09:50:47;5.80;;;3.00;;
2480;SDS011;57396;48.742;9.128;2022-07-29T09:53:49;5.43;;;3.00;;
2480;SDS011;57396;48.742;9.128;2022-07-29T09:56:07;6.77;;;3.40;;
2480;SDS011;57396;48.742;9.128;2022-07-29T09:58:32;8.20;;;3.37;;
2480;SDS011;57396;48.742;9.128;2022-07-29T10:00:59;6.80;;;3.40;;
2480;SDS011;57396;48.742;9.128;2022-07-29T10:03:24;4.23;;;3.33;;
2480;SDS011;57396;48.742;9.128;2022-07-29T10:06:09;4.67;;;3.30;;
2480;SDS011;57396;48.742;9.128;2022-07-29T10:08:35;11.30;;;3.30;;
2480;SDS011;57396;48.742;9.128;2022-07-29T10:11:11;6.47;;;3.40;;
2480;SDS011;57396;48.742;9.128;2022-07-29T10:13:38;4.30;;;3.47;;
2480;SDS011;57396;48.742;9.128;2022-07-29T10:16:04;5.07;;;3.77;;
2480;SDS011;57396;48.742;9.128;2022-07-29T10:18:31;6.27;;;4.00;;
2480;SDS011;57396;48.742;9.128;2022-07-29T10:20:57;5.13;;;3.23;;
2480;SDS011;57396;48.742;9.128;2022-07-29T10:23:23;8.00;;;3.70;;
2480;SDS011;57396;48.742;9.128;2022-07-29T10:25:49;5.67;;;3.57;;
2480;SDS011;57396;48.742;9.128;2022-07-29T10:28:14;6.10;;;3.50;;
2480;SDS011;57396;48.742;9.128;2022-07-29T10:30:40;7.37;;;3.90;;
2480;SDS011;57396;48.742;9.128;2022-07-29T10:43:51;5.20;;;4.27;;
2480;SDS011;57396;48.742;9.128;2022-07-29T10:46:24;4.57;;;4.07;;
2480;SDS011;57396;48.742;9.128;2022-07-29T10:54:46;8.90;;;4.90;;
2480;SDS011;57396;48.742;9.128;2022-07-29T10:59:51;6.83;;;5.67;;
2480;SDS011;57396;48.742;9.128;2022-07-29T11:05:03;10.50;;;5.50;;
2480;SDS011;57396;48.742;9.128;2022-07-29T11:07:29;14.37;;;6.70;;
2480;SDS011;57396;48.742;9.128;2022-07-29T11:12:50;20.43;;;8.03;;
2480;SDS011;57396;48.742;9.128;2022-07-29T11:15:19;16.20;;;6.90;;
2480;SDS011;57396;48.742;9.128;2022-07-29T11:20:34;11.03;;;8.47;;
2480;SDS011;57396;48.742;9.128;2022-07-29T11:23:23;10.90;;;6.40;;
2480;SDS011;57396;48.742;9.128;2022-07-29T11:31:48;11.70;;;7.03;;
2480;SDS011;57396;48.742;9.128;2022-07-29T11:34:29;13.10;;;7.70;;
2480;SDS011;57396;48.742;9.128;2022-07-29T11:39:32;15.23;;;7.13;;
2480;SDS011;57396;48.742;9.128;2022-07-29T11:47:26;11.83;;;7.27;;
2480;SDS011;57396;48.742;9.128;2022-07-29T11:49:56;12.13;;;7.17;;
2480;SDS011;57396;48.742;9.128;2022-07-29T11:52:24;8.93;;;6.63;;
2480;SDS011;57396;48.742;9.128;2022-07-29T11:54:58;15.67;;;12.90;;
2480;SDS011;57396;48.742;9.128;2022-07-29T11:57:27;9.40;;;7.27;;
2480;SDS011;57396;48.742;9.128;2022-07-29T11:59:53;10.90;;;6.60;;
2480;SDS011;57396;48.742;9.128;2022-07-29T12:02:18;11.73;;;7.20;;
2480;SDS011;57396;48.742;9.128;2022-07-29T12:04:56;8.43;;;6.87;;
2480;SDS011;57396;48.742;9.128;2022-07-29T12:07:26;8.10;;;7.20;;
2480;SDS011;57396;48.742;9.128;2022-07-29T12:09:53;9.10;;;8.20;;
2480;SDS011;57396;48.742;9.128;2022-07-29T12:12:19;9.97;;;6.50;;
2480;SDS011;57396;48.742;9.128;2022-07-29T12:14:45;8.37;;;7.50;;
2480;SDS011;57396;48.742;9.128;2022-07-29T12:17:27;9.10;;;6.20;;
2480;SDS011;57396;48.742;9.128;2022-07-29T12:19:59;10.40;;;6.37;;
2480;SDS011;57396;48.742;9.128;2022-07-29T12:22:28;8.10;;;5.70;;
2480;SDS011;57396;48.742;9.128;2022-07-29T12:25:00;8.87;;;6.10;;
2480;SDS011;57396;48.742;9.128;2022-07-29T12:27:27;7.87;;;5.70;;
2480;SDS011;57396;48.742;9.128;2022-07-29T12:29:59;9.20;;;5.80;;
2480;SDS011;57396;48.742;9.128;2022-07-29T12:32:33;11.33;;;6.23;;
2480;SDS011;57396;48.742;9.128;2022-07-29T12:35:03;7.53;;;5.50;;
2480;SDS011;57396;48.742;9.128;2022-07-29T12:37:31;8.40;;;5.20;;
2480;SDS011;57396;48.742;9.128;2022-07-29T12:39:58;6.50;;;5.63;;
2480;SDS011;57396;48.742;9.128;2022-07-29T12:42:23;6.90;;;5.73;;
2480;SDS011;57396;48.742;9.128;2022-07-29T12:44:49;8.70;;;5.43;;
2480;SDS011;57396;48.742;9.128;2022-07-29T12:47:15;12.83;;;6.30;;
2480;SDS011;57396;48.742;9.128;2022-07-29T12:49:43;10.50;;;5.67;;
2480;SDS011;57396;48.742;9.128;2022-07-29T12:52:28;7.57;;;5.53;;
2480;SDS011;57396;48.742;9.128;2022-07-29T12:54:55;17.73;;;6.23;;
2480;SDS011;57396;48.742;9.128;2022-07-29T12:57:21;10.67;;;5.90;;
2480;SDS011;57396;48.742;9.128;2022-07-29T13:02:33;16.87;;;8.60;;
2480;SDS011;57396;48.742;9.128;2022-07-29T13:04:59;9.20;;;6.33;;
2480;SDS011;57396;48.742;9.128;2022-07-29T13:07:26;11.97;;;7.10;;
2480;SDS011;57396;48.742;9.128;2022-07-29T13:09:54;10.30;;;6.60;;
2480;SDS011;57396;48.742;9.128;2022-07-29T13:12:38;13.40;;;8.70;;
2480;SDS011;57396;48.742;9.128;2022-07-29T13:15:14;10.43;;;5.70;;
2480;SDS011;57396;48.742;9.128;2022-07-29T13:17:41;6.60;;;6.00;;
2480;SDS011;57396;48.742;9.128;2022-07-29T13:20:08;7.37;;;5.40;;
2480;SDS011;57396;48.742;9.128;2022-07-29T13:22:37;7.07;;;4.57;;
2480;SDS011;57396;48.742;9.128;2022-07-29T13:25:03;8.40;;;5.10;;
2480;SDS011;57396;48.742;9.128;2022-07-29T13:27:29;6.80;;;4.53;;
2480;SDS011;57396;48.742;9.128;2022-07-29T13:29:57;6.93;;;4.00;;
2480;SDS011;57396;48.742;9.128;2022-07-29T13:32:25;7.07;;;5.27;;
2480;SDS011;57396;48.742;9.128;2022-07-29T13:34:51;10.20;;;5.60;;
2480;SDS011;57396;48.742;9.128;2022-07-29T13:37:17;6.67;;;5.60;;
2480;SDS011;57396;48.742;9.128;2022-07-29T13:39:43;8.00;;;5.20;;
2480;SDS011;57396;48.742;9.128;2022-07-29T13:42:08;9.47;;;6.23;;
2480;SDS011;57396;48.742;9.128;2022-07-29T13:44:34;9.93;;;8.80;;
2480;SDS011;57396;48.742;9.128;2022-07-29T13:47:00;9.17;;;7.30;;
2480;SDS011;57396;48.742;9.128;2022-07-29T13:49:26;9.33;;;7.00;;
2480;SDS011;57396;48.742;9.128;2022-07-29T13:51:52;11.20;;;9.57;;
2480;SDS011;57396;48.742;9.128;2022-07-29T13:54:18;10.13;;;9.13;;
2480;SDS011;57396;48.742;9.128;2022-07-29T13:56:43;10.13;;;7.33;;
2480;SDS011;57396;48.742;9.128;2022-07-29T13:59:09;10.23;;;8.47;;
2480;SDS011;57396;48.742;9.128;2022-07-29T14:01:34;8.33;;;6.23;;
2480;SDS011;57396;48.742;9.128;2022-07-29T14:04:00;12.00;;;6.67;;
2480;SDS011;57396;48.742;9.128;2022-07-29T14:06:26;8.80;;;6.20;;
2480;SDS011;57396;48.742;9.128;2022-07-29T14:08:51;10.97;;;6.20;;
2480;SDS011;57396;48.742;9.128;2022-07-29T14:11:17;15.63;;;8.97;;
2480;SDS011;57396;48.742;9.128;2022-07-29T14:13:42;12.30;;;7.10;;
2480;SDS011;57396;48.742;9.128;2022-07-29T14:16:08;9.70;;;7.70;;
2480;SDS011;57396;48.742;9.128;2022-07-29T14:18:33;7.20;;;6.03;;
2480;SDS011;57396;48.742;9.128;2022-07-29T14:20:59;8.47;;;6.10;;
2480;SDS011;57396;48.742;9.128;2022-07-29T14:23:24;6.40;;;5.80;;
2480;SDS011;57396;48.742;9.128;2022-07-29T14:25:50;6.83;;;6.13;;
2480;SDS011;57396;48.742;9.128;2022-07-29T14:28:15;13.57;;;6.77;;
2480;SDS011;57396;48.742;9.128;2022-07-29T14:30:41;9.20;;;6.63;;
2480;SDS011;57396;48.742;9.128;2022-07-29T14:33:06;8.30;;;6.40;;
2480;SDS011;57396;48.742;9.128;2022-07-29T14:35:32;9.83;;;5.90;;
2480;SDS011;57396;48.742;9.128;2022-07-29T14:37:57;7.10;;;5.73;;
2480;SDS011;57396;48.742;9.128;2022-07-29T14:40:23;13.10;;;7.20;;
2480;SDS011;57396;48.742;9.128;2022-07-29T14:42:48;10.60;;;6.30;;
2480;SDS011;57396;48.742;9.128;2022-07-29T14:45:14;7.90;;;5.80;;
2480;SDS011;57396;48.742;9.128;2022-07-29T14:47:39;8.00;;;5.80;;
2480;SDS011;57396;48.742;9.128;2022-07-29T14:50:05;6.90;;;6.30;;
2480;SDS011;57396;48.742;9.128;2022-07-29T14:52:31;7.27;;;6.50;;
2480;SDS011;57396;48.742;9.128;2022-07-29T14:54:57;9.53;;;6.50;;
2480;SDS011;57396;48.742;9.128;2022-07-29T14:57:22;6.90;;;6.23;;
2480;SDS011;57396;48.742;9.128;2022-07-29T14:59:48;9.63;;;6.10;;
2480;SDS011;57396;48.742;9.128;2022-07-29T15:02:13;6.77;;;6.17;;
2480;SDS011;57396;48.742;9.128;2022-07-29T15:04:39;6.67;;;6.17;;
2480;SDS011;57396;48.742;9.128;2022-07-29T15:07:04;9.90;;;5.77;;
2480;SDS011;57396;48.742;9.128;2022-07-29T15:09:30;7.70;;;5.53;;
2480;SDS011;57396;48.742;9.128;2022-07-29T15:11:55;11.27;;;5.93;;
2480;SDS011;57396;48.742;9.128;2022-07-29T15:14:21;9.80;;;5.60;;
2480;SDS011;57396;48.742;9.128;2022-07-29T15:16:46;6.03;;;5.37;;
2480;SDS011;57396;48.742;9.128;2022-07-29T15:19:12;6.77;;;6.07;;
2480;SDS011;57396;48.742;9.128;2022-07-29T15:21:37;5.40;;;4.90;;
2480;SDS011;57396;48.742;9.128;2022-07-29T15:24:03;7.40;;;4.80;;
2480;SDS011;57396;48.742;9.128;2022-07-29T15:26:28;6.80;;;6.10;;
2480;SDS011;57396;48.742;9.128;2022-07-29T15:28:54;10.40;;;5.97;;
2480;SDS011;57396;48.742;9.128;2022-07-29T15:31:21;7.70;;;5.70;;
2480;SDS011;57396;48.742;9.128;2022-07-29T15:33:46;7.57;;;5.80;;
2480;SDS011;57396;48.742;9.128;2022-07-29T15:36:12;6.40;;;5.83;;
2480;SDS011;57396;48.742;9.128;2022-07-29T15:38:38;6.70;;;6.10;;
2480;SDS011;57396;48.742;9.128;2022-07-29T15:41:05;12.80;;;5.30;;
2480;SDS011;57396;48.742;9.128;2022-07-29T15:43:33;6.23;;;5.67;;
2480;SDS011;57396;48.742;9.128;2022-07-29T15:46:02;6.30;;;5.70;;
2480;SDS011;57396;48.742;9.128;2022-07-29T15:48:46;7.37;;;5.93;;
2480;SDS011;57396;48.742;9.128;2022-07-29T15:51:11;7.63;;;5.80;;
2480;SDS011;57396;48.742;9.128;2022-07-29T15:53:36;10.10;;;6.30;;
2480;SDS011;57396;48.742;9.128;2022-07-29T15:56:02;7.33;;;5.73;;
2480;SDS011;57396;48.742;9.128;2022-07-29T15:58:28;6.43;;;5.87;;
2480;SDS011;57396;48.742;9.128;2022-07-29T16:00:54;11.43;;;5.50;;
2480;SDS011;57396;48.742;9.128;2022-07-29T16:03:19;6.60;;;5.90;;
2480;SDS011;57396;48.742;9.128;2022-07-29T16:05:46;5.17;;;4.77;;
2480;SDS011;57396;48.742;9.128;2022-07-29T16:08:12;6.63;;;5.17;;
2480;SDS011;57396;48.742;9.128;2022-07-29T16:10:37;7.27;;;6.10;;
2480;SDS011;57396;48.742;9.128;2022-07-29T16:13:03;5.90;;;5.40;;
2480;SDS011;57396;48.742;9.128;2022-07-29T16:15:28;7.80;;;6.10;;